Darstellungsparameter: Aktuell verwendete Einstellungen:
Skalierung der Graphiken ... ?
xyx+y,   Skalierungsfaktor:      Skalierung: Modus: x, Faktor: 1
Darstellungszeitraum ... ?
Vom - - bis: - -   Zeitraum: 03.08.2019 - 02.08.2020
Min/Max/Avg-Anzeige ... ?
Zeige MMA aktuell
Zeige MMA Monat
Zeige MMA alles
Zeige --A aktuell
Zeige --A Monat
Zeige --A alles
Keine MMA-Anzeige
MMA:
Keine MMA-Graphiken
MMA-Basis: 03.08.2019 - 02.08.2020
Quicknavigation für Darstellung... ?
Tage:      1T, 2T, 3T, 5T -1T -2T -3T -5T +1T +2T +3T +5T
Wochen: 1W, 2W, 3W -1W -2W -3W +1W +2W +3W
Monate: 1M, 3M, 6M -1M -3M -6M +1M +3M +6M
Jahre:    1J, 3J, 5J, 10J -1J -3J -5J -10J +1J +3J +5J +10J
Nutze für die Darstellung ... ?
Originaldaten oder ...
Mittelwerte Minima Maxima auf...
Stundenbasis Tagesbasis Wochenbasis
Monatsbasis Jahresbasis      Datenbasis: Minima auf Tagesbasis
Darstellen als:
Statistik (Auto) Statistik J:M      Darstellung:
Zur Graphik,    zurück zur Übersicht aller Sensoren.
 
Tabellarische Datenbersicht: ?
 
Sensor: Nr:Datum:Temp:Feuchte:
Aussen-T/F 1 03-08-2019 00:00:00 16.7 C 49 %
2 04-08-2019 00:00:00 12.2 C 31 %
3 05-08-2019 00:00:00 17.3 C 40 %
4 06-08-2019 00:00:00 16.3 C 55 %
5 07-08-2019 00:00:00 16.2 C 65 %
6 08-08-2019 00:00:00 15 C 45 %
7 09-08-2019 00:00:00 14.4 C 63 %
8 10-08-2019 00:00:00 16.1 C 46 %
9 11-08-2019 00:00:00 13.1 C 50 %
10 12-08-2019 00:00:00 12.5 C 53 %
11 13-08-2019 00:00:00 12.6 C 45 %
12 14-08-2019 00:00:00 10.5 C 43 %
13 15-08-2019 00:00:00 14.8 C 75 %
14 16-08-2019 00:00:00 13.5 C 50 %
15 17-08-2019 00:00:00 15.6 C 74 %
16 18-08-2019 00:00:00 16.3 C 68 %
17 19-08-2019 00:00:00 14.4 C 44 %
18 20-08-2019 00:00:00 10.3 C 55 %
19 21-08-2019 00:00:00 10.2 C 39 %
20 22-08-2019 00:00:00 9.6 C 32 %
21 23-08-2019 00:00:00 10.6 C 32 %
22 24-08-2019 00:00:00 11.3 C 30 %
23 25-08-2019 00:00:00 14.3 C 44 %
24 26-08-2019 00:00:00 16.6 C 46 %
25 27-08-2019 00:00:00 16.7 C 38 %
Sensor: Nr:Datum:Temp:Feuchte:
Aussen-T/F 26 28-08-2019 00:00:00 17.8 C 39 %
27 29-08-2019 00:00:00 17.4 C 58 %
28 30-08-2019 00:00:00 15.3 C 35 %
29 31-08-2019 00:00:00 13.9 C 38 %
30 01-09-2019 00:00:00 15.2 C 55 %
31 02-09-2019 00:00:00 9.7 C 36 %
32 03-09-2019 00:00:00 8.5 C 44 %
33 04-09-2019 00:00:00 10 C 42 %
34 05-09-2019 00:00:00 12.2 C 52 %
35 06-09-2019 00:00:00 7.2 C 36 %
36 07-09-2019 00:00:00 11.7 C 73 %
37 08-09-2019 00:00:00 11.1 C 80 %
38 09-09-2019 00:00:00 8.9 C 70 %
39 10-09-2019 00:00:00 8.1 C 48 %
40 11-09-2019 00:00:00 6.4 C 53 %
41 12-09-2019 00:00:00 15.3 C 61 %
42 13-09-2019 00:00:00 14.9 C 75 %
43 14-09-2019 00:00:00 10.3 C 44 %
44 15-09-2019 00:00:00 8.6 C 42 %
45 16-09-2019 00:00:00 11 C 54 %
46 17-09-2019 00:00:00 12.7 C 52 %
47 18-09-2019 00:00:00 5.7 C 43 %
48 19-09-2019 00:00:00 5 C 40 %
49 20-09-2019 00:00:00 4 C 37 %
50 21-09-2019 00:00:00 4.5 C 28 %
Sensor: Nr:Datum:Temp:Feuchte:
Aussen-T/F 51 22-09-2019 00:00:00 6.8 C 48 %
52 23-09-2019 00:00:00 13.8 C 65 %
53 24-09-2019 00:00:00 9.8 C 66 %
54 25-09-2019 00:00:00 13.6 C 75 %
55 26-09-2019 00:00:00 13.1 C 85 %
56 27-09-2019 00:00:00 13.1 C 70 %
57 28-09-2019 00:00:00 12.7 C 74 %
58 29-09-2019 00:00:00 13.4 C 67 %
59 30-09-2019 00:00:00 13 C 59 %
60 01-10-2019 00:00:00 12.3 C 74 %
61 02-10-2019 00:00:00 8.1 C 59 %
62 03-10-2019 00:00:00 7.2 C 79 %
63 04-10-2019 00:00:00 7.6 C 87 %
64 05-10-2019 00:00:00 7.3 C 76 %
65 06-10-2019 00:00:00 6.4 C 94 %
66 07-10-2019 00:00:00 8.6 C 86 %
67 08-10-2019 00:00:00 11.1 C 91 %
68 09-10-2019 00:00:00 10.3 C 85 %
69 10-10-2019 00:00:00 9.6 C 67 %
70 11-10-2019 00:00:00 8.7 C 76 %
71 12-10-2019 00:00:00 8.6 C 68 %
72 13-10-2019 00:00:00 12.7 C 71 %
73 14-10-2019 00:00:00 12.4 C 66 %
74 15-10-2019 00:00:00 11.6 C 79 %
75 16-10-2019 00:00:00 10.6 C 83 %
Sensor: Nr:Datum:Temp:Feuchte:
Aussen-T/F 76 17-10-2019 00:00:00 12.2 C 81 %
77 18-10-2019 00:00:00 9 C 70 %
78 19-10-2019 00:00:00 8.9 C 75 %
79 20-10-2019 00:00:00 12.6 C 96 %
80 21-10-2019 00:00:00 10.9 C 77 %
81 22-10-2019 00:00:00 9.4 C 77 %
82 23-10-2019 00:00:00 7.4 C 88 %
83 24-10-2019 00:00:00 11.4 C 77 %
84 25-10-2019 00:00:00 10.7 C 69 %
85 26-10-2019 00:00:00 10.1 C 83 %
86 27-10-2019 00:00:00 4.9 C 85 %
87 28-10-2019 00:00:00 5.1 C 94 %
88 29-10-2019 00:00:00 2.6 C 72 %
89 30-10-2019 00:00:00 1 C 82 %
90 31-10-2019 00:00:00 -0.8 C 79 %
91 01-11-2019 00:00:00 0.4 C 92 %
92 02-11-2019 00:00:00 10.3 C 73 %
93 03-11-2019 00:00:00 9.8 C 80 %
94 04-11-2019 00:00:00 8.1 C 84 %
95 05-11-2019 00:00:00 7.9 C 76 %
96 06-11-2019 00:00:00 7.3 C 90 %
97 07-11-2019 00:00:00 4.6 C 88 %
98 08-11-2019 00:00:00 2.3 C 94 %
99 09-11-2019 00:00:00 1.7 C 86 %
100 10-11-2019 00:00:00 0.9 C 92 %
Sensor: Nr:Datum:Temp:Feuchte:
Aussen-T/F 101 11-11-2019 00:00:00 3.1 C 85 %
102 12-11-2019 00:00:00 2.8 C 79 %
103 13-11-2019 00:00:00 3.1 C 83 %
104 14-11-2019 00:00:00 2.5 C 66 %
105 15-11-2019 00:00:00 2.8 C 78 %
106 16-11-2019 00:00:00 -0.4 C 93 %
107 17-11-2019 00:00:00 -0.8 C 96 %
108 18-11-2019 00:00:00 2.4 C 95 %
109 19-11-2019 00:00:00 0.7 C 86 %
110 20-11-2019 00:00:00 -0.9 C 83 %
111 21-11-2019 00:00:00 -1.5 C 93 %
112 22-11-2019 00:00:00 1.3 C 92 %
113 23-11-2019 00:00:00 3.2 C 87 %
114 24-11-2019 00:00:00 0.9 C 96 %
115 25-11-2019 00:00:00 1.9 C 95 %
116 26-11-2019 00:00:00 3.5 C 89 %
117 27-11-2019 00:00:00 7.9 C 76 %
118 28-11-2019 00:00:00 9.7 C 76 %
119 29-11-2019 00:00:00 2.4 C 72 %
120 30-11-2019 00:00:00 -0.3 C 94 %
121 01-12-2019 00:00:00 -0.2 C 78 %
122 02-12-2019 00:00:00 -1.3 C 87 %
123 03-12-2019 00:00:00 3.3 C 94 %
124 04-12-2019 00:00:00 -1.7 C 95 %
125 05-12-2019 00:00:00 -2.4 C 96 %
Sensor: Nr:Datum:Temp:Feuchte:
Aussen-T/F 126 06-12-2019 00:00:00 -2.4 C 88 %
127 07-12-2019 00:00:00 7.3 C 81 %
128 08-12-2019 00:00:00 8.3 C 80 %
129 09-12-2019 00:00:00 5.1 C 78 %
130 10-12-2019 00:00:00 1.4 C 85 %
131 11-12-2019 00:00:00 3.2 C 86 %
132 12-12-2019 00:00:00 1.6 C 84 %
133 13-12-2019 00:00:00 2.2 C 86 %
134 14-12-2019 00:00:00 4.4 C 70 %
135 15-12-2019 00:00:00 4 C 77 %
136 16-12-2019 00:00:00 4.4 C 95 %
137 17-12-2019 00:00:00 7.3 C 73 %
138 18-12-2019 00:00:00 3.2 C 89 %
139 19-12-2019 00:00:00 1.8 C 86 %
140 20-12-2019 00:00:00 3.7 C 84 %
141 21-12-2019 00:00:00 4.3 C 83 %
142 22-12-2019 00:00:00 6.2 C 81 %
143 23-12-2019 00:00:00 5.6 C 83 %
144 24-12-2019 00:00:00 5.2 C 79 %
145 25-12-2019 00:00:00 5.6 C 85 %
146 26-12-2019 00:00:00 4 C 95 %
147 27-12-2019 00:00:00 1.4 C 87 %
148 28-12-2019 00:00:00 -1.7 C 94 %
149 29-12-2019 00:00:00 -3.6 C 91 %
150 30-12-2019 00:00:00 -3.1 C 89 %
Sensor: Nr:Datum:Temp:Feuchte:
Aussen-T/F 151 31-12-2019 00:00:00 -1.9 C 87 %
152 01-01-2020 00:00:00 -1.9 C 90 %
153 02-01-2020 00:00:00 -1.4 C 91 %
154 03-01-2020 00:00:00 3.7 C 84 %
155 04-01-2020 00:00:00 1.9 C 81 %
156 05-01-2020 00:00:00 5.1 C 89 %
157 06-01-2020 00:00:00 -0.2 C 91 %
158 07-01-2020 00:00:00 1.8 C 86 %
159 08-01-2020 00:00:00 5.7 C 86 %
160 09-01-2020 00:00:00 9.2 C 87 %
161 10-01-2020 00:00:00 6.5 C 83 %
162 11-01-2020 00:00:00 1.6 C 74 %
163 12-01-2020 00:00:00 1.8 C 81 %
164 13-01-2020 00:00:00 4.7 C 85 %
165 14-01-2020 00:00:00 6.5 C 64 %
166 15-01-2020 00:00:00 6.8 C 64 %
167 16-01-2020 00:00:00 6 C 91 %
168 17-01-2020 00:00:00 2.3 C 86 %
169 18-01-2020 00:00:00 1.2 C 77 %
170 19-01-2020 00:00:00 2.7 C 89 %
171 20-01-2020 00:00:00 -1.7 C 73 %
172 21-01-2020 00:00:00 -3.3 C 95 %
173 22-01-2020 00:00:00 -3.1 C 96 %
174 23-01-2020 00:00:00 -0.7 C 94 %
175 24-01-2020 00:00:00 0.5 C 86 %
Sensor: Nr:Datum:Temp:Feuchte:
Aussen-T/F 176 25-01-2020 00:00:00 1.1 C 93 %
177 26-01-2020 00:00:00 1.3 C 91 %
178 27-01-2020 00:00:00 1.7 C 85 %
179 28-01-2020 00:00:00 3.8 C 71 %
180 29-01-2020 00:00:00 2.8 C 63 %
181 30-01-2020 00:00:00 5.1 C 71 %
182 31-01-2020 00:00:00 11.4 C 77 %
183 01-02-2020 00:00:00 8.2 C 77 %
184 02-02-2020 00:00:00 6.9 C 73 %
185 03-02-2020 00:00:00 7.1 C 70 %
186 04-02-2020 00:00:00 4.2 C 77 %
187 05-02-2020 00:00:00 -0.3 C 73 %
188 06-02-2020 00:00:00 -1.4 C 78 %
189 07-02-2020 00:00:00 -1.8 C 90 %
190 08-02-2020 00:00:00 -1.5 C 88 %
191 09-02-2020 00:00:00 2 C 66 %
192 10-02-2020 00:00:00 4.9 C 63 %
193 11-02-2020 00:00:00 4.5 C 61 %
194 12-02-2020 00:00:00 2.3 C 69 %
195 13-02-2020 00:00:00 -0.1 C 77 %
196 14-02-2020 00:00:00 2.9 C 78 %
197 15-02-2020 00:00:00 1.4 C 72 %
198 16-02-2020 00:00:00 10.1 C 51 %
199 17-02-2020 00:00:00 4.9 C 70 %
200 18-02-2020 00:00:00 5.7 C 72 %
Sensor: Nr:Datum:Temp:Feuchte:
Aussen-T/F 201 19-02-2020 00:00:00 2.7 C 61 %
202 20-02-2020 00:00:00 5.4 C 74 %
203 21-02-2020 00:00:00 2.3 C 71 %
204 22-02-2020 00:00:00 4.2 C 65 %
205 23-02-2020 00:00:00 7.4 C 78 %
206 24-02-2020 00:00:00 4.6 C 78 %
207 25-02-2020 00:00:00 4.6 C 62 %
208 26-02-2020 00:00:00 3.4 C 73 %
209 27-02-2020 00:00:00 1.1 C 80 %
210 28-02-2020 00:00:00 1 C 70 %
211 29-02-2020 00:00:00 4.3 C 61 %
212 01-03-2020 00:00:00 3.8 C 65 %
213 02-03-2020 00:00:00 2.1 C 64 %
214 03-03-2020 00:00:00 2.2 C 73 %
215 04-03-2020 00:00:00 2.9 C 68 %
216 05-03-2020 00:00:00 4.2 C 88 %
217 06-03-2020 00:00:00 5.4 C 83 %
218 07-03-2020 00:00:00 4.8 C 54 %
219 08-03-2020 00:00:00 6.8 C 63 %
220 09-03-2020 00:00:00 5.4 C 56 %
221 10-03-2020 00:00:00 5.3 C 82 %
222 11-03-2020 00:00:00 13 C 79 %
223 12-03-2020 00:00:00 7.1 C 50 %
224 13-03-2020 00:00:00 5.3 C 63 %
225 14-03-2020 00:00:00 1.4 C 58 %
Sensor: Nr:Datum:Temp:Feuchte:
Aussen-T/F 226 15-03-2020 00:00:00 3.6 C 46 %
227 16-03-2020 00:00:00 1.7 C 53 %
228 17-03-2020 00:00:00 6.7 C 51 %
229 18-03-2020 00:00:00 3.8 C 58 %
230 19-03-2020 00:00:00 8.6 C 52 %
231 20-03-2020 00:00:00 5.8 C 72 %
232 21-03-2020 00:00:00 2.6 C 52 %
233 22-03-2020 00:00:00 0 C 31 %
234 23-03-2020 00:00:00 -2.4 C 23 %
235 24-03-2020 00:00:00 -3.5 C 22 %
236 25-03-2020 00:00:00 -3.2 C 22 %
237 26-03-2020 00:00:00 -0.4 C 37 %
238 27-03-2020 00:00:00 0.6 C 40 %
239 28-03-2020 00:00:00 1.8 C 35 %
240 29-03-2020 00:00:00 3.7 C 53 %
241 30-03-2020 00:00:00 -3.4 C 33 %
242 31-03-2020 00:00:00 1.1 C 34 %
243 01-04-2020 00:00:00 -3.4 C 30 %
244 02-04-2020 00:00:00 -2 C 40 %
245 03-04-2020 00:00:00 2.8 C 48 %
246 04-04-2020 00:00:00 -0.9 C 40 %
247 05-04-2020 00:00:00 0.2 C 30 %
248 06-04-2020 00:00:00 2.1 C 23 %
249 07-04-2020 00:00:00 5.4 C 34 %
250 08-04-2020 00:00:00 5.6 C 24 %
Sensor: Nr:Datum:Temp:Feuchte:
Aussen-T/F 251 09-04-2020 00:00:00 7.3 C 32 %
252 10-04-2020 00:00:00 6 C 32 %
253 11-04-2020 00:00:00 5.1 C 31 %
254 12-04-2020 00:00:00 7.3 C 23 %
255 13-04-2020 00:00:00 4 C 39 %
256 14-04-2020 00:00:00 0.2 C 41 %
257 15-04-2020 00:00:00 -0.1 C 30 %
258 16-04-2020 00:00:00 2.4 C 31 %
259 17-04-2020 00:00:00 6.6 C 36 %
260 18-04-2020 00:00:00 8.6 C 57 %
261 19-04-2020 00:00:00 9.1 C 50 %
262 20-04-2020 00:00:00 6.3 C 30 %
263 21-04-2020 00:00:00 6.7 C 29 %
264 22-04-2020 00:00:00 6.1 C 27 %
265 23-04-2020 00:00:00 5.9 C 25 %
266 24-04-2020 00:00:00 6.3 C 28 %
267 25-04-2020 00:00:00 7.9 C 39 %
268 26-04-2020 00:00:00 2.8 C 26 %
269 27-04-2020 00:00:00 4.2 C 32 %
270 28-04-2020 00:00:00 7.7 C 70 %
271 29-04-2020 00:00:00 11.5 C 56 %
272 30-04-2020 00:00:00 8.8 C 57 %
273 01-05-2020 00:00:00 7.6 C 65 %
274 02-05-2020 00:00:00 6.7 C 60 %
275 03-05-2020 00:00:00 3.4 C 44 %
Sensor: Nr:Datum:Temp:Feuchte:
Aussen-T/F 276 04-05-2020 00:00:00 6.9 C 69 %
277 05-05-2020 00:00:00 4.1 C 29 %
278 06-05-2020 00:00:00 2 C 29 %
279 07-05-2020 00:00:00 3.3 C 32 %
280 08-05-2020 00:00:00 6.8 C 25 %
281 09-05-2020 00:00:00 9.3 C 52 %
282 10-05-2020 00:00:00 10.7 C 68 %
283 11-05-2020 00:00:00 5.2 C 45 %
284 12-05-2020 00:00:00 0.9 C 36 %
285 13-05-2020 00:00:00 1.8 C 44 %
286 14-05-2020 00:00:00 4.3 C 40 %
287 15-05-2020 00:00:00 2.1 C 33 %
288 16-05-2020 00:00:00 2.6 C 33 %
289 17-05-2020 00:00:00 6.7 C 33 %
290 18-05-2020 00:00:00 5.8 C 34 %
291 19-05-2020 00:00:00 8 C 36 %
292 20-05-2020 00:00:00 11.2 C 47 %
293 21-05-2020 00:00:00 10.2 C 36 %
294 22-05-2020 00:00:00 12.7 C 53 %
295 23-05-2020 00:00:00 10.8 C 69 %
296 24-05-2020 00:00:00 9.8 C 52 %
297 25-05-2020 00:00:00 11.8 C 53 %
298 26-05-2020 00:00:00 7.2 C 43 %
299 27-05-2020 00:00:00 7.8 C 30 %
300 28-05-2020 00:00:00 12.2 C 25 %
Sensor: Nr:Datum:Temp:Feuchte:
Aussen-T/F 301 29-05-2020 00:00:00 6.7 C 28 %
302 30-05-2020 00:00:00 8 C 33 %
303 31-05-2020 00:00:00 8.2 C 39 %
304 01-06-2020 00:00:00 8.3 C 33 %
305 02-06-2020 00:00:00 10.4 C 26 %
306 03-06-2020 00:00:00 13.6 C 35 %
307 04-06-2020 00:00:00 11.1 C 71 %
308 05-06-2020 00:00:00 8.8 C 69 %
309 06-06-2020 00:00:00 7.9 C 51 %
310 07-06-2020 00:00:00 7.5 C 45 %
311 08-06-2020 00:00:00 7.9 C 41 %
312 09-06-2020 00:00:00 9.6 C 67 %
313 10-06-2020 00:00:00 12.3 C 63 %
314 11-06-2020 00:00:00 12.3 C 63 %
315 12-06-2020 00:00:00 10.3 C 37 %
316 13-06-2020 00:00:00 16 C 39 %
317 14-06-2020 00:00:00 17.1 C 66 %
318 15-06-2020 00:00:00 16.4 C 64 %
319 16-06-2020 00:00:00 14.9 C 74 %
320 17-06-2020 00:00:00 13.8 C 65 %
321 18-06-2020 00:00:00 13.9 C 45 %
322 19-06-2020 00:00:00 12.1 C 53 %
323 20-06-2020 00:00:00 12.3 C 54 %
324 21-06-2020 00:00:00 11.7 C 39 %
325 22-06-2020 00:00:00 14.6 C 37 %
Sensor: Nr:Datum:Temp:Feuchte:
Aussen-T/F 326 23-06-2020 00:00:00 10.7 C 37 %
327 24-06-2020 00:00:00 12.7 C 25 %
328 25-06-2020 00:00:00 14.5 C 49 %
329 26-06-2020 00:00:00 13.7 C 37 %
330 27-06-2020 00:00:00 17.3 C 48 %
331 28-06-2020 00:00:00 15.1 C 55 %
332 29-06-2020 00:00:00 12.2 C 41 %
333 30-06-2020 00:00:00 9.7 C 50 %
334 01-07-2020 00:00:00 15.6 C 56 %
335 02-07-2020 00:00:00 14.8 C 54 %
336 03-07-2020 00:00:00 11.2 C 44 %
337 04-07-2020 00:00:00 12.4 C 48 %
338 05-07-2020 00:00:00 19.9 C 59 %
339 06-07-2020 00:00:00 12.7 C 42 %
340 07-07-2020 00:00:00 8.5 C 38 %
341 08-07-2020 00:00:00 13.6 C 68 %
342 09-07-2020 00:00:00 16.4 C 43 %
343 10-07-2020 00:00:00 16.1 C 64 %
344 11-07-2020 00:00:00 10.2 C 36 %
345 12-07-2020 00:00:00 9.2 C 33 %
346 13-07-2020 00:00:00 9.8 C 27 %
347 14-07-2020 00:00:00 12.2 C 38 %
348 15-07-2020 00:00:00 14.5 C 50 %
349 16-07-2020 00:00:00 14.3 C 75 %
350 17-07-2020 00:00:00 15.1 C 48 %
Sensor: Nr:Datum:Temp:Feuchte:
Aussen-T/F 351 18-07-2020 00:00:00 12.8 C 41 %
352 19-07-2020 00:00:00 14.4 C 27 %
353 20-07-2020 00:00:00 15.1 C 51 %
354 21-07-2020 00:00:00 11.3 C 34 %
355 22-07-2020 00:00:00 9.1 C 34 %
356 23-07-2020 00:00:00 10.6 C 31 %
357 24-07-2020 00:00:00 15.7 C 39 %
358 25-07-2020 00:00:00 14.4 C 41 %
359 26-07-2020 00:00:00 16.8 C 39 %
360 27-07-2020 00:00:00 12.7 C 28 %
361 28-07-2020 00:00:00 17.7 C 34 %
362 29-07-2020 00:00:00 11.6 C 34 %
363 30-07-2020 00:00:00 11.1 C 26 %
364 31-07-2020 00:00:00 13.2 C 21 %
365 01-08-2020 00:00:00 17.4 C 49 %
366 02-08-2020 00:00:00 16.9 C 43 %

Maximal/Minimal-Werte vom 03.08.2019 - 02.08.2020

Sensor Min Max Avg
Temp
(Aussen-T/F)
-3.6 °C
29-12-2019  07:25:00
37.9 °C
31-07-2020  17:55:00
11.58 °C
Feuchte
(Aussen-T/F)
21 %
31-07-2020  17:15:00
99 %
21-10-2019  10:45:00
80.49 %

Warnung:
When displaying minima or maxima values for days, weeks, months or years no virtual sensors will be displayed.



Die Daten stammen von einer Davis Vantage Pro 2 Wetter-Station und werden unter Linux mit der Software wview2wettercgi und aufbereitet. Alle Angaben erfolgen ohne Gewähr für ihre Vollständigkeit oder Richtigkeit.
Kontakt: Rainer Krienke krienke@uni-koblenz.de . Meine Webseiten an der Uni Koblenz oder privat.
Version: $Revision: 0.78 $